Atwood, Wisconsin
Current Conditions -  °F | °C
As of 3:15 AM on Sunday 21 Dec 2014 (Local Time) from KMDZ Reporting Station
Haze Haze  
Wind Chill: 19°   Ceiling: 500
Heat Index: 28°   Visibility: 2.5mi
Dew Point: 27°   Wind: 8mph
Humidity: 96%   Direction: 170°S
Pressure: 30.08"   Gusts: NA
Location:  44.9782°N, 90.5368°W
Report Text: KMDZ 210915Z AUTO 17007KT 2 1/2SM BR OVC005 M02/M03 A3008 RMK AO2 T10251030
Loading
Personal Weather Stations






























Interactive Weather Map New forecast layout! Learn more

10-Day Weather Forecast

Advertisements
Track Severe Weather on mobile